Time;durP1;ratioP1;P1;durP2;ratioP2;P2;SDS_P1;SDS_P2;PMS_P1;PMS_P2;Temp;Humidity;BMP_temperature;BMP_pressure;BME280_temperature;BME280_humidity;BME280_pressure;Samples;Min_cycle;Max_cycle;Signal;HPM_P1;HPM_P2
2022/01/17 00:01:33;;;;;;;28.88;22.35;;;6.20;99.90;;;;;;5005328;28;20426;-83
2022/01/17 00:03:59;;;;;;;28.75;22.13;;;6.20;99.90;;;;;;5005827;28;20407;-84
2022/01/17 00:06:25;;;;;;;28.95;21.63;;;6.30;99.90;;;;;;5006445;28;20864;-84
2022/01/17 00:08:52;;;;;;;30.52;21.33;;;6.30;99.90;;;;;;5006725;28;20417;-84
2022/01/17 00:11:18;;;;;;;28.73;21.23;;;6.30;99.90;;;;;;5009314;28;20409;-83
2022/01/17 00:13:45;;;;;;;27.25;20.60;;;6.30;99.90;;;;;;5006875;28;20734;-83
2022/01/17 00:21:05;;;;;;;22.80;18.05;;;6.30;99.90;;;;;;5006194;28;20741;-84
2022/01/17 00:23:32;;;;;;;25.88;18.95;;;6.40;99.90;;;;;;5005010;28;20388;-84
2022/01/17 00:25:58;;;;;;;26.63;18.63;;;6.40;99.90;;;;;;5004655;28;20932;-84
2022/01/17 00:28:23;;;;;;;23.40;17.73;;;6.30;99.90;;;;;;5005204;28;20379;-84
2022/01/17 00:30:49;;;;;;;24.40;17.58;;;6.30;99.90;;;;;;5003865;28;20873;-83
2022/01/17 00:33:14;;;;;;;24.90;16.95;;;6.30;99.90;;;;;;5006384;28;20376;-83
2022/01/17 00:35:40;;;;;;;22.97;16.17;;;6.40;99.90;;;;;;5006395;28;20876;-83
2022/01/17 00:38:08;;;;;;;25.40;16.60;;;6.40;99.90;;;;;;5006177;28;20390;-84
2022/01/17 00:40:33;;;;;;;22.38;15.63;;;6.40;99.90;;;;;;5005086;28;20395;-84
2022/01/17 00:42:59;;;;;;;22.10;16.17;;;6.40;99.90;;;;;;5004901;28;20407;-83
2022/01/17 00:45:27;;;;;;;23.20;15.80;;;6.40;99.90;;;;;;5004765;28;20444;-84
2022/01/17 00:47:57;;;;;;;23.02;15.38;;;6.40;99.90;;;;;;5005261;28;20881;-84
2022/01/17 00:50:25;;;;;;;24.35;16.05;;;6.50;99.90;;;;;;5004857;28;20468;-85
2022/01/17 00:52:50;;;;;;;20.77;15.35;;;6.50;99.90;;;;;;5006184;28;20393;-84
2022/01/17 00:55:17;;;;;;;21.10;15.73;;;6.50;99.90;;;;;;5004407;28;20407;-83
2022/01/17 00:57:42;;;;;;;19.42;15.55;;;6.50;99.90;;;;;;5005982;28;20444;-83
2022/01/17 01:00:09;;;;;;;22.63;15.80;;;6.50;99.90;;;;;;5004666;28;20878;-84
2022/01/17 01:02:36;;;;;;;21.77;14.48;;;6.50;99.90;;;;;;5006099;28;20407;-84
2022/01/17 01:05:04;;;;;;;20.83;14.35;;;6.60;99.90;;;;;;5005043;28;20543;-85
2022/01/17 01:07:29;;;;;;;21.48;14.23;;;6.60;99.90;;;;;;5004721;28;20436;-83
2022/01/17 01:10:10;;;;;;;18.07;13.50;;;6.60;99.90;;;;;;5005311;28;20400;-84
2022/01/17 01:12:37;;;;;;;21.17;13.97;;;6.60;99.90;;;;;;5005886;28;20387;-85
2022/01/17 01:15:06;;;;;;;17.88;12.77;;;6.60;99.90;;;;;;5006147;28;20468;-84
2022/01/17 01:17:47;;;;;;;17.88;12.30;;;6.60;99.90;;;;;;5004187;28;20391;-83
2022/01/17 01:28:29;;;;;;;15.43;9.00;;;6.60;99.90;;;;;;5005943;28;20762;-83
2022/01/17 01:30:56;;;;;;;12.93;6.25;;;6.70;99.90;;;;;;5004237;28;20393;-83
2022/01/17 01:33:32;;;;;;;10.57;5.13;;;6.70;99.90;;;;;;5004914;28;20418;-83
2022/01/17 01:36:03;;;;;;;8.93;3.92;;;6.70;99.90;;;;;;5004563;28;20396;-84
2022/01/17 01:38:29;;;;;;;8.10;4.57;;;6.70;99.90;;;;;;5005490;28;20513;-83
2022/01/17 01:40:55;;;;;;;11.73;4.07;;;6.70;99.90;;;;;;5003479;28;20411;-84
2022/01/17 01:43:21;;;;;;;9.17;3.90;;;6.70;99.90;;;;;;5008044;28;20495;-83
2022/01/17 01:45:48;;;;;;;10.57;3.67;;;6.70;99.90;;;;;;5009371;28;20962;-83
2022/01/17 01:48:15;;;;;;;9.23;3.35;;;6.70;99.90;;;;;;5009600;28;20707;-82
2022/01/17 01:50:40;;;;;;;7.95;3.30;;;6.60;99.90;;;;;;5008685;28;20927;-84
2022/01/17 01:53:06;;;;;;;11.20;3.30;;;6.60;99.90;;;;;;5008927;28;20376;-83
2022/01/17 01:55:32;;;;;;;10.15;3.75;;;6.50;99.90;;;;;;5007118;28;20754;-83
2022/01/17 01:57:57;;;;;;;10.93;3.90;;;6.30;99.90;;;;;;5007763;28;20395;-83
2022/01/17 02:00:23;;;;;;;11.17;3.57;;;6.20;99.90;;;;;;5008879;28;20730;-82
2022/01/17 02:02:49;;;;;;;9.40;3.30;;;6.10;99.90;;;;;;5007350;28;20937;-83
2022/01/17 02:05:15;;;;;;;8.63;3.10;;;6.00;99.90;;;;;;5009204;28;20395;-83
2022/01/17 02:07:43;;;;;;;12.13;3.65;;;;;;;;;;5009488;28;20375;-84
2022/01/17 02:10:09;;;;;;;13.77;3.90;;;;;;;;;;5010785;28;20391;-81
2022/01/17 02:12:36;;;;;;;10.98;3.47;;;;;;;;;;5015094;28;20395;-83
2022/01/17 02:15:04;;;;;;;12.90;3.10;;;;;;;;;;5009944;28;20820;-83
2022/01/17 02:17:33;;;;;;;10.33;3.27;;;;;;;;;;5009054;28;20379;-82
2022/01/17 02:20:07;;;;;;;14.55;3.40;;;;;;;;;;5007848;28;20395;-85
2022/01/17 02:22:34;;;;;;;14.45;3.30;;;;;;;;;;5007856;28;20411;-83
2022/01/17 02:25:00;;;;;;;10.77;3.13;;;6.40;99.90;;;;;;5008464;28;20380;-83
2022/01/17 02:27:26;;;;;;;8.63;2.80;;;6.30;99.90;;;;;;5007424;28;20409;-84
2022/01/17 02:29:52;;;;;;;10.43;3.10;;;6.30;99.90;;;;;;5009015;28;20762;-83
2022/01/17 02:32:19;;;;;;;13.05;3.40;;;6.30;99.90;;;;;;5009808;28;20436;-83
2022/01/17 02:34:45;;;;;;;10.00;2.92;;;6.20;99.90;;;;;;5007311;28;20471;-83
2022/01/17 02:37:11;;;;;;;12.65;3.05;;;6.20;99.90;;;;;;5009839;28;20819;-84
2022/01/17 02:39:37;;;;;;;11.18;2.72;;;6.20;99.90;;;;;;5008837;28;20379;-83
2022/01/17 02:42:05;;;;;;;10.48;3.10;;;6.10;99.90;;;;;;5008536;28;20418;-83
2022/01/17 02:44:30;;;;;;;13.23;3.25;;;6.20;99.90;;;;;;5009057;28;20371;-83
2022/01/17 02:46:56;;;;;;;9.70;3.13;;;6.10;99.90;;;;;;5010118;28;20382;-83
2022/01/17 02:49:22;;;;;;;11.13;3.08;;;6.20;99.90;;;;;;5009754;28;20388;-82
2022/01/17 02:51:48;;;;;;;9.32;3.20;;;6.10;99.90;;;;;;5011106;28;20439;-83
2022/01/17 02:54:14;;;;;;;10.68;2.95;;;6.20;99.90;;;;;;5008869;28;20387;-83
2022/01/17 02:56:40;;;;;;;14.25;3.60;;;6.30;99.90;;;;;;5009582;28;20391;-83
2022/01/17 02:59:06;;;;;;;11.55;3.38;;;6.20;99.90;;;;;;5008201;28;20392;-82
2022/01/17 03:01:32;;;;;;;10.75;2.90;;;6.30;99.90;;;;;;5008629;28;20483;-83
2022/01/17 03:03:59;;;;;;;13.90;3.67;;;6.30;99.90;;;;;;5010744;28;20386;-84
2022/01/17 03:06:26;;;;;;;12.52;3.20;;;6.30;99.90;;;;;;5009070;28;20383;-84
2022/01/17 03:08:52;;;;;;;15.18;3.42;;;6.30;99.90;;;;;;5009220;28;20378;-83
2022/01/17 03:11:21;;;;;;;10.15;3.25;;;6.30;99.90;;;;;;5008079;28;20414;-83
2022/01/17 03:13:48;;;;;;;15.38;3.85;;;6.30;99.90;;;;;;5008649;28;20389;-83
2022/01/17 03:16:16;;;;;;;10.77;3.78;;;6.20;99.90;;;;;;5010341;28;20399;-83
2022/01/17 03:18:44;;;;;;;14.52;3.42;;;6.20;99.90;;;;;;5009258;28;20400;-84
2022/01/17 03:21:12;;;;;;;15.07;4.18;;;6.20;99.90;;;;;;5007819;28;20395;-85
2022/01/17 03:23:39;;;;;;;12.82;3.25;;;6.20;99.90;;;;;;5008185;28;20379;-83
2022/01/17 03:26:05;;;;;;;14.15;3.80;;;6.20;99.90;;;;;;5008840;28;20388;-84
2022/01/17 03:28:31;;;;;;;12.88;4.18;;;6.30;99.90;;;;;;5008575;28;20387;-84
2022/01/17 03:30:58;;;;;;;14.32;3.70;;;6.30;99.90;;;;;;5007366;28;21220;-85
2022/01/17 03:33:23;;;;;;;16.48;3.53;;;6.20;99.90;;;;;;5008036;28;21165;-83
2022/01/17 03:35:49;;;;;;;12.60;3.80;;;6.30;99.90;;;;;;5006938;28;20466;-84
2022/01/17 03:38:18;;;;;;;12.80;3.60;;;6.20;99.90;;;;;;5007886;28;20391;-84
2022/01/17 03:40:48;;;;;;;11.50;3.42;;;6.20;99.90;;;;;;5008799;28;20474;-85
2022/01/17 03:43:14;;;;;;;12.93;3.67;;;6.20;99.90;;;;;;5007887;28;20419;-85
2022/01/17 03:45:40;;;;;;;16.90;4.20;;;6.20;99.90;;;;;;5007802;28;20999;-84
2022/01/17 03:48:06;;;;;;;16.70;4.10;;;6.30;99.90;;;;;;5008032;28;20921;-84
2022/01/17 03:50:31;;;;;;;9.83;3.50;;;6.30;99.90;;;;;;5008817;28;20462;-83
2022/01/17 03:52:57;;;;;;;13.80;3.43;;;6.20;99.90;;;;;;5008187;28;20888;-84
2022/01/17 03:55:25;;;;;;;11.67;3.40;;;6.20;99.90;;;;;;5007158;28;20450;-83
2022/01/17 03:57:51;;;;;;;14.18;4.25;;;6.20;99.90;;;;;;5008654;28;20379;-84
2022/01/17 04:00:28;;;;;;;14.60;3.97;;;6.30;99.90;;;;;;5008005;28;20437;-84
2022/01/17 04:02:54;;;;;;;13.35;3.38;;;6.30;99.90;;;;;;5007286;28;20746;-84
2022/01/17 04:05:20;;;;;;;13.50;3.45;;;6.30;99.90;;;;;;5006404;28;20383;-84
2022/01/17 04:07:46;;;;;;;15.40;4.10;;;6.30;99.90;;;;;;5009722;28;20829;-85
2022/01/17 04:10:12;;;;;;;16.13;3.42;;;6.30;99.90;;;;;;5011422;28;20371;-82
2022/01/17 04:12:39;;;;;;;14.40;4.13;;;6.20;99.90;;;;;;5011345;28;20397;-83
2022/01/17 04:15:06;;;;;;;15.32;4.13;;;6.20;99.90;;;;;;5007377;28;20793;-84
2022/01/17 04:17:32;;;;;;;16.35;4.07;;;6.20;99.90;;;;;;5006626;28;20399;-84
2022/01/17 04:20:04;;;;;;;15.27;4.32;;;6.20;99.90;;;;;;5008591;28;20406;-85
2022/01/17 04:22:36;;;;;;;12.13;3.70;;;6.20;99.90;;;;;;5007390;28;20422;-84
2022/01/17 04:25:03;;;;;;;11.77;3.63;;;6.30;99.90;;;;;;5007713;28;20387;-84
2022/01/17 04:27:29;;;;;;;13.90;3.93;;;6.30;99.90;;;;;;5007333;28;20406;-84
2022/01/17 04:29:54;;;;;;;12.60;3.40;;;6.20;99.90;;;;;;5007920;28;20376;-85
2022/01/17 04:32:20;;;;;;;13.77;3.77;;;;;;;;;;5007725;28;21047;-83
2022/01/17 04:34:46;;;;;;;12.60;3.78;;;;;;;;;;5008754;28;20383;-82
2022/01/17 04:37:12;;;;;;;15.53;4.07;;;;;;;;;;5007843;28;20395;-84
2022/01/17 04:39:38;;;;;;;17.85;4.38;;;;;;;;;;5008367;28;20375;-84
2022/01/17 04:42:11;;;;;;;13.38;3.83;;;6.40;99.90;;;;;;5006388;28;20411;-83
2022/01/17 04:47:21;;;;;;;13.27;4.05;;;6.30;99.90;;;;;;5009217;28;20406;-85
2022/01/17 04:49:47;;;;;;;17.38;4.25;;;6.30;99.90;;;;;;5008513;28;20383;-84
2022/01/17 04:52:14;;;;;;;15.33;3.90;;;6.30;99.90;;;;;;5009486;28;20387;-85
2022/01/17 04:54:42;;;;;;;15.68;4.00;;;6.60;99.90;;;;;;5008390;28;20470;-82
2022/01/17 04:57:11;;;;;;;15.25;4.05;;;6.30;99.90;;;;;;5008029;28;20439;-85
2022/01/17 04:59:39;;;;;;;13.60;3.60;;;6.30;99.90;;;;;;5006588;28;20456;-85
2022/01/17 05:02:06;;;;;;;15.27;3.55;;;6.20;99.90;;;;;;5007084;28;20852;-84
2022/01/17 05:04:32;;;;;;;12.60;3.95;;;6.20;99.90;;;;;;5006272;28;20376;-84
2022/01/17 05:06:58;;;;;;;15.70;4.20;;;6.30;99.90;;;;;;5008100;28;20384;-86
2022/01/17 05:09:23;;;;;;;15.77;4.00;;;6.20;99.90;;;;;;5007564;28;20384;-85
2022/01/17 05:11:49;;;;;;;14.18;3.67;;;6.20;99.90;;;;;;5007000;28;20376;-84
2022/01/17 05:14:15;;;;;;;11.50;3.70;;;6.30;99.90;;;;;;5008064;28;20423;-83
2022/01/17 05:16:47;;;;;;;13.83;3.83;;;6.50;99.90;;;;;;5011627;28;20401;-85
2022/01/17 05:21:57;;;;;;;11.63;3.70;;;6.40;99.90;;;;;;5012068;28;20414;-85
2022/01/17 05:24:23;;;;;;;12.53;3.83;;;6.30;99.90;;;;;;5012357;28;20372;-84
2022/01/17 05:26:48;;;;;;;14.40;3.35;;;6.60;99.90;;;;;;5011720;28;20407;-85
2022/01/17 05:29:15;;;;;;;14.07;3.58;;;;;;;;;;5010797;28;20487;-85
2022/01/17 05:31:41;;;;;;;13.38;3.63;;;;;;;;;;5010309;28;20783;-84
2022/01/17 05:34:07;;;;;;;16.10;3.67;;;;;;;;;;5010063;28;20395;-86
2022/01/17 05:36:33;;;;;;;14.25;3.50;;;;;;;;;;5012500;28;20470;-85
2022/01/17 05:38:59;;;;;;;13.38;3.45;;;;;;;;;;5011704;28;20464;-84
2022/01/17 05:41:25;;;;;;;14.82;3.40;;;;;;;;;;5009594;28;20444;-83
2022/01/17 05:43:51;;;;;;;14.30;3.78;;;;;;;;;;5008617;28;20399;-85
2022/01/17 05:46:17;;;;;;;15.15;3.75;;;;;;;;;;5008853;28;20915;-84
2022/01/17 05:48:43;;;;;;;11.50;3.38;;;;;;;;;;5023222;28;20386;-83
2022/01/17 05:51:09;;;;;;;14.00;3.28;;;;;;;;;;5029523;28;20378;-85
2022/01/17 05:53:35;;;;;;;12.95;3.42;;;;;;;;;;5029643;28;20412;-84
2022/01/17 05:56:01;;;;;;;11.57;3.55;;;;;;;;;;5029196;28;20441;-84
2022/01/17 05:58:27;;;;;;;11.82;3.17;;;;;;;;;;5029593;28;20812;-84
2022/01/17 06:00:53;;;;;;;12.43;4.05;;;;;;;;;;5029360;28;20377;-85
2022/01/17 06:03:19;;;;;;;10.33;3.10;;;;;;;;;;5029975;28;20413;-85
2022/01/17 06:05:46;;;;;;;8.20;2.88;;;;;;;;;;5029121;28;20377;-84
2022/01/17 06:08:12;;;;;;;13.02;3.40;;;;;;;;;;5028307;28;20375;-84
2022/01/17 06:10:38;;;;;;;13.20;3.13;;;;;;;;;;5029180;28;20437;-84
2022/01/17 06:13:05;;;;;;;13.98;3.30;;;;;;;;;;5027856;28;20411;-83
2022/01/17 06:15:31;;;;;;;10.95;3.20;;;;;;;;;;5012082;28;20939;-84
2022/01/17 06:17:57;;;;;;;11.33;2.77;;;;;;;;;;5028266;28;20392;-85
2022/01/17 06:20:23;;;;;;;10.57;2.88;;;;;;;;;;5028422;28;20409;-84
2022/01/17 06:22:49;;;;;;;9.88;3.50;;;;;;;;;;5028677;28;20402;-84
2022/01/17 06:25:15;;;;;;;11.23;3.10;;;;;;;;;;5029770;28;20373;-83
2022/01/17 06:27:41;;;;;;;13.80;3.53;;;;;;;;;;5027662;28;20773;-84
2022/01/17 06:30:07;;;;;;;13.57;3.37;;;;;;;;;;5029668;27;20389;-85
2022/01/17 06:32:34;;;;;;;11.48;3.08;;;;;;;;;;5028920;28;20386;-86
2022/01/17 06:35:03;;;;;;;8.80;2.80;;;;;;;;;;5029130;28;20384;-85
2022/01/17 06:37:29;;;;;;;14.85;3.60;;;;;;;;;;5027828;28;20724;-85
2022/01/17 06:39:56;;;;;;;11.35;3.50;;;;;;;;;;5027335;28;20378;-85
2022/01/17 06:42:22;;;;;;;11.88;3.50;;;;;;;;;;5029250;28;20434;-84
2022/01/17 06:44:49;;;;;;;10.50;3.67;;;6.10;99.90;;;;;;5028326;27;20803;-84
2022/01/17 06:47:14;;;;;;;13.30;3.45;;;6.00;99.90;;;;;;5029071;28;20472;-85
2022/01/17 06:49:40;;;;;;;9.02;2.80;;;5.90;99.90;;;;;;5027461;28;20449;-85
2022/01/17 06:52:06;;;;;;;12.25;3.30;;;5.90;99.90;;;;;;5027083;28;20397;-85
2022/01/17 06:54:32;;;;;;;13.32;3.30;;;5.80;99.90;;;;;;5029038;28;20413;-84
2022/01/17 06:56:58;;;;;;;12.27;3.28;;;5.90;99.90;;;;;;5028378;28;20420;-84
2022/01/17 06:59:23;;;;;;;11.55;3.55;;;5.90;99.90;;;;;;5026009;28;20402;-85
2022/01/17 07:01:49;;;;;;;16.03;3.07;;;5.90;99.90;;;;;;5028335;28;20402;-85
2022/01/17 07:04:14;;;;;;;14.13;3.55;;;5.90;99.90;;;;;;5028072;28;20494;-85
2022/01/17 07:06:40;;;;;;;13.48;3.22;;;5.80;99.90;;;;;;5028621;28;20378;-84
2022/01/17 07:09:09;;;;;;;12.02;3.60;;;5.80;99.90;;;;;;5011326;28;20407;-84
2022/01/17 07:11:39;;;;;;;13.82;3.30;;;5.80;99.90;;;;;;5008366;28;20387;-85
2022/01/17 07:14:09;;;;;;;12.65;3.17;;;5.80;99.90;;;;;;5008062;28;20394;-84
2022/01/17 07:16:36;;;;;;;14.37;3.77;;;5.90;99.90;;;;;;5007608;28;20753;-85
2022/01/17 07:19:02;;;;;;;12.65;3.63;;;5.90;99.90;;;;;;5008043;28;20707;-86
2022/01/17 07:21:28;;;;;;;13.82;3.88;;;5.90;99.90;;;;;;5007250;28;20473;-84
2022/01/17 07:23:54;;;;;;;11.67;3.27;;;5.90;99.90;;;;;;5009384;28;20383;-84
2022/01/17 07:26:20;;;;;;;12.52;3.63;;;5.90;99.90;;;;;;5024432;28;20393;-84
2022/01/17 07:28:46;;;;;;;12.23;3.40;;;5.90;99.90;;;;;;5005337;28;20494;-84
2022/01/17 07:31:12;;;;;;;13.10;3.63;;;5.80;99.90;;;;;;5016547;28;20395;-87
2022/01/17 07:33:38;;;;;;;9.80;3.43;;;5.90;99.90;;;;;;5020536;28;20410;-84
2022/01/17 07:36:05;;;;;;;12.73;3.00;;;5.90;99.90;;;;;;5013984;28;20387;-85
2022/01/17 07:38:31;;;;;;;13.17;3.17;;;5.90;99.90;;;;;;5013331;28;20392;-85
2022/01/17 07:40:58;;;;;;;13.00;3.40;;;6.00;99.90;;;;;;5027343;28;20386;-83
2022/01/17 07:43:24;;;;;;;12.27;3.60;;;6.00;99.90;;;;;;5024749;28;20448;-84
2022/01/17 07:46:07;;;;;;;12.13;3.30;;;6.00;99.90;;;;;;5024703;28;20433;-84
2022/01/17 07:51:21;;;;;;;11.70;3.20;;;6.10;99.90;;;;;;5026992;28;20417;-84
2022/01/17 07:53:46;;;;;;;12.90;3.27;;;6.10;99.90;;;;;;5026736;28;20404;-83
2022/01/17 07:56:12;;;;;;;8.73;3.07;;;6.30;99.90;;;;;;5027517;28;20446;-84
2022/01/17 07:58:38;;;;;;;9.77;3.50;;;6.20;99.90;;;;;;5023079;28;20868;-84
2022/01/17 08:01:04;;;;;;;8.77;3.20;;;6.30;99.90;;;;;;5028007;28;20418;-84
2022/01/17 08:03:30;;;;;;;9.90;3.10;;;6.30;99.90;;;;;;5026395;28;20490;-84
2022/01/17 08:05:57;;;;;;;9.57;2.90;;;6.40;99.90;;;;;;5028055;28;20927;-84
2022/01/17 08:08:23;;;;;;;7.47;2.90;;;6.40;99.90;;;;;;5026074;28;20413;-85
2022/01/17 08:10:49;;;;;;;9.20;2.63;;;6.40;99.90;;;;;;5023398;28;21239;-85
2022/01/17 08:13:14;;;;;;;6.30;2.70;;;6.40;99.90;;;;;;5026874;28;20486;-85
2022/01/17 08:15:40;;;;;;;8.57;2.90;;;6.30;99.90;;;;;;5027456;28;20389;-84
2022/01/17 08:18:06;;;;;;;9.82;3.00;;;6.40;99.90;;;;;;5018910;28;20394;-85
2022/01/17 08:20:32;;;;;;;5.77;2.37;;;6.40;99.90;;;;;;4998124;28;20407;-84
2022/01/17 08:22:58;;;;;;;7.23;2.70;;;6.50;99.90;;;;;;5009000;28;20410;-86
2022/01/17 08:25:24;;;;;;;6.05;2.20;;;6.40;99.90;;;;;;5024991;28;20397;-84
2022/01/17 08:27:50;;;;;;;8.00;2.30;;;6.50;99.90;;;;;;5002813;28;20408;-85
2022/01/17 08:30:16;;;;;;;8.07;2.50;;;6.40;99.90;;;;;;5008717;28;20465;-85
2022/01/17 08:32:41;;;;;;;8.23;2.85;;;6.40;99.90;;;;;;5014395;28;20454;-84
2022/01/17 08:35:08;;;;;;;9.83;2.77;;;6.30;99.90;;;;;;5013932;28;20378;-86
2022/01/17 08:37:33;;;;;;;7.28;2.60;;;6.40;99.90;;;;;;5026644;28;20773;-85
2022/01/17 08:40:00;;;;;;;8.32;2.60;;;6.40;99.90;;;;;;5026052;28;20420;-85
2022/01/17 08:42:27;;;;;;;7.75;2.60;;;6.30;99.90;;;;;;5024913;28;20468;-84
2022/01/17 08:44:56;;;;;;;7.60;2.70;;;6.30;99.90;;;;;;5024825;28;20955;-84
2022/01/17 08:47:22;;;;;;;5.97;2.28;;;6.40;99.90;;;;;;5024733;28;20378;-85
2022/01/17 08:49:48;;;;;;;5.35;1.90;;;6.40;99.90;;;;;;5025030;28;20891;-84
2022/01/17 08:52:15;;;;;;;7.30;2.53;;;6.40;99.90;;;;;;5024790;28;20378;-84
2022/01/17 08:54:42;;;;;;;7.67;2.50;;;6.50;99.90;;;;;;5010538;28;21002;-86
2022/01/17 08:57:08;;;;;;;5.88;2.65;;;6.40;99.90;;;;;;5016212;28;20389;-85
2022/01/17 08:59:33;;;;;;;6.13;2.00;;;6.40;99.90;;;;;;5026750;28;20393;-83
2022/01/17 09:01:59;;;;;;;5.68;2.17;;;6.40;99.90;;;;;;5026988;28;20756;-84
2022/01/17 09:04:25;;;;;;;6.80;2.45;;;6.40;99.90;;;;;;5026536;28;20386;-85
2022/01/17 09:06:50;;;;;;;5.93;2.38;;;6.50;99.90;;;;;;5028789;28;20457;-84
2022/01/17 09:09:20;;;;;;;6.97;2.37;;;6.40;99.90;;;;;;5027938;28;20883;-86
2022/01/17 09:11:45;;;;;;;6.20;2.42;;;6.40;99.90;;;;;;5027962;28;20377;-85
2022/01/17 09:14:11;;;;;;;5.30;2.50;;;6.40;99.90;;;;;;5027937;28;20393;-85
2022/01/17 09:16:37;;;;;;;9.02;2.67;;;6.40;99.90;;;;;;5027456;28;20987;-84
2022/01/17 09:19:04;;;;;;;6.32;2.97;;;6.40;99.90;;;;;;5028631;28;20743;-84
2022/01/17 09:21:30;;;;;;;6.90;2.92;;;6.50;99.90;;;;;;5027073;28;20392;-85
2022/01/17 09:23:58;;;;;;;7.53;2.83;;;6.50;99.90;;;;;;5028728;28;20373;-84
2022/01/17 09:26:27;;;;;;;6.60;2.75;;;6.50;99.90;;;;;;5028214;28;20378;-85
2022/01/17 09:28:54;;;;;;;7.85;2.70;;;6.60;99.90;;;;;;5027804;28;20381;-85
2022/01/17 09:31:21;;;;;;;8.82;3.00;;;6.60;99.90;;;;;;5026841;28;20404;-85
2022/01/17 09:33:47;;;;;;;6.00;2.53;;;6.60;99.90;;;;;;5028399;28;20923;-84
2022/01/17 09:36:13;;;;;;;5.70;2.30;;;6.60;99.90;;;;;;5027568;28;20389;-86
2022/01/17 09:38:40;;;;;;;6.70;2.70;;;6.70;99.90;;;;;;5027791;28;20430;-85
2022/01/17 09:41:06;;;;;;;7.13;2.50;;;6.70;99.90;;;;;;5029108;28;20408;-85
2022/01/17 09:43:32;;;;;;;5.63;2.40;;;6.70;99.90;;;;;;5026431;28;20413;-86
2022/01/17 09:45:58;;;;;;;4.47;2.38;;;6.70;99.90;;;;;;5026965;28;20471;-85
2022/01/17 09:48:34;;;;;;;5.78;2.50;;;6.70;99.90;;;;;;5028338;28;20386;-85
2022/01/17 09:51:05;;;;;;;6.45;2.42;;;6.70;99.90;;;;;;5028850;28;20409;-85
2022/01/17 09:53:38;;;;;;;8.20;2.10;;;6.70;99.90;;;;;;5029223;28;20477;-85
2022/01/17 09:56:06;;;;;;;3.38;1.30;;;6.40;99.90;;;;;;5029939;28;20442;-84
2022/01/17 09:58:36;;;;;;;5.00;1.27;;;5.40;99.90;;;;;;5035005;28;20409;-83
2022/01/17 10:01:04;;;;;;;8.95;2.35;;;5.30;99.90;;;;;;5032536;28;20747;-86
2022/01/17 10:03:32;;;;;;;10.05;2.38;;;5.30;99.90;;;;;;5035383;28;20397;-85
2022/01/17 10:05:57;;;;;;;9.32;2.33;;;5.40;99.90;;;;;;5028381;28;20404;-86
2022/01/17 10:08:23;;;;;;;10.40;2.53;;;5.20;99.90;;;;;;5028621;28;20381;-85
2022/01/17 10:11:00;;;;;;;12.30;2.95;;;5.20;99.90;;;;;;5028057;28;20434;-86
2022/01/17 10:13:38;;;;;;;7.40;2.33;;;5.20;99.90;;;;;;5019314;28;20406;-84
2022/01/17 10:16:14;;;;;;;10.50;3.00;;;5.20;99.90;;;;;;5028673;28;20434;-84
2022/01/17 10:18:39;;;;;;;10.40;2.75;;;5.40;99.90;;;;;;5028912;28;20725;-85
2022/01/17 10:21:21;;;;;;;10.47;2.97;;;5.50;99.90;;;;;;5028467;28;20454;-85
2022/01/17 10:24:21;;;;;;;10.20;2.80;;;5.70;99.90;;;;;;5028713;28;20890;-85
2022/01/17 10:27:04;;;;;;;9.70;3.00;;;;;;;;;;5012996;28;20408;-83
2022/01/17 10:35:14;;;;;;;12.02;2.92;;;;;;;;;;5027027;28;20401;-84
2022/01/17 10:37:41;;;;;;;10.98;2.90;;;5.90;99.90;;;;;;5007890;28;20391;-84
2022/01/17 10:40:14;;;;;;;11.07;3.00;;;6.20;99.90;;;;;;5081601;28;20446;-83
2022/01/17 10:42:45;;;;;;;12.80;2.97;;;6.40;99.90;;;;;;5028771;28;20412;-84
2022/01/17 10:45:12;;;;;;;12.98;3.28;;;6.40;99.90;;;;;;5029759;28;20378;-83
2022/01/17 10:47:43;;;;;;;11.33;3.10;;;;;;;;;;5030533;27;20426;-84
2022/01/17 10:50:12;;;;;;;10.77;3.00;;;6.50;99.90;;;;;;5029000;28;20471;-84
2022/01/17 10:52:39;;;;;;;14.20;3.47;;;;;;;;;;5028976;28;20470;-84
2022/01/17 10:55:19;;;;;;;10.48;2.83;;;6.70;99.90;;;;;;5031112;28;20384;-85
2022/01/17 10:57:48;;;;;;;13.35;3.60;;;6.80;99.90;;;;;;5029303;28;20442;-84
2022/01/17 11:00:24;;;;;;;12.68;3.25;;;6.80;99.90;;;;;;5031462;28;20449;-85
2022/01/17 11:02:55;;;;;;;12.10;3.58;;;6.90;99.90;;;;;;5013224;28;20417;-84
2022/01/17 11:05:22;;;;;;;14.25;3.65;;;7.20;99.90;;;;;;5032747;28;20374;-84
2022/01/17 11:07:52;;;;;;;12.05;3.58;;;7.00;99.90;;;;;;5031387;28;20374;-85
2022/01/17 11:10:24;;;;;;;13.33;4.27;;;7.30;99.90;;;;;;5030822;28;20381;-83
2022/01/17 11:12:52;;;;;;;11.43;3.43;;;7.10;99.90;;;;;;5029357;28;20431;-84
2022/01/17 11:15:19;;;;;;;11.30;3.63;;;7.00;99.90;;;;;;5027954;28;20386;-84
2022/01/17 11:17:59;;;;;;;12.00;3.28;;;7.10;99.90;;;;;;5023371;27;20450;-83
2022/01/17 11:20:27;;;;;;;11.95;3.80;;;7.00;99.90;;;;;;5030116;28;20454;-84
2022/01/17 11:22:58;;;;;;;13.93;3.90;;;7.30;99.90;;;;;;5029296;28;20409;-83
2022/01/17 11:25:36;;;;;;;13.13;3.50;;;7.20;99.90;;;;;;5029848;28;20374;-84
2022/01/17 11:28:04;;;;;;;12.63;4.07;;;7.10;99.90;;;;;;5030129;28;20441;-84
2022/01/17 11:30:33;;;;;;;15.93;4.68;;;7.20;99.90;;;;;;5031473;28;20931;-85
2022/01/17 11:33:03;;;;;;;12.20;3.63;;;7.30;99.90;;;;;;5029097;28;20450;-84
2022/01/17 11:35:29;;;;;;;14.90;4.35;;;7.30;99.90;;;;;;5031356;28;20382;-85
2022/01/17 11:38:00;;;;;;;15.02;4.00;;;7.20;99.90;;;;;;5029877;28;20380;-84
2022/01/17 11:40:35;;;;;;;10.73;2.83;;;7.20;99.90;;;;;;5028936;28;20868;-83
2022/01/17 11:43:17;;;;;;;9.07;2.90;;;6.90;99.90;;;;;;5027289;28;20979;-82
2022/01/17 11:45:44;;;;;;;9.30;2.92;;;6.00;99.90;;;;;;5051920;28;20471;-86
2022/01/17 11:48:19;;;;;;;9.07;2.60;;;5.50;99.90;;;;;;5110622;28;20367;-84
2022/01/17 11:50:47;;;;;;;9.80;2.80;;;5.20;99.90;;;;;;5110685;28;20375;-84
2022/01/17 11:53:33;;;;;;;9.32;2.90;;;4.90;99.90;;;;;;5109207;28;20375;-84
2022/01/17 11:55:58;;;;;;;14.73;3.85;;;5.00;99.90;;;;;;5095470;28;20382;-85
2022/01/17 11:58:30;;;;;;;11.43;3.47;;;4.60;99.90;;;;;;5109085;28;20778;-83
2022/01/17 12:01:01;;;;;;;11.15;3.95;;;4.00;99.90;;;;;;5108841;28;20435;-84
2022/01/17 12:03:28;;;;;;;13.93;3.60;;;3.80;99.90;;;;;;5110162;28;20916;-83
2022/01/17 12:05:55;;;;;;;9.13;2.92;;;3.70;99.90;;;;;;5110567;28;20370;-84
2022/01/17 12:08:24;;;;;;;16.02;3.72;;;3.60;99.90;;;;;;5109738;28;20386;-84
2022/01/17 12:10:57;;;;;;;9.43;3.13;;;3.60;99.90;;;;;;5108087;28;20386;-84
2022/01/17 12:13:33;;;;;;;12.05;3.78;;;3.50;99.90;;;;;;5110221;28;20435;-82
2022/01/17 12:16:29;;;;;;;13.20;3.33;;;3.60;99.90;;;;;;5109110;28;20382;-85
2022/01/17 12:18:58;;;;;;;9.30;3.10;;;3.60;99.90;;;;;;5111122;28;20441;-83
2022/01/17 12:21:35;;;;;;;14.90;3.45;;;3.70;99.90;;;;;;5111686;28;20383;-83
2022/01/17 12:24:20;;;;;;;11.45;3.10;;;3.70;99.90;;;;;;5119837;28;20435;-83
2022/01/17 12:26:56;;;;;;;9.57;2.67;;;3.70;99.90;;;;;;5108768;28;20421;-84
2022/01/17 12:29:43;;;;;;;12.63;3.30;;;3.80;99.90;;;;;;5108580;28;20978;-84
2022/01/17 12:32:24;;;;;;;9.40;3.07;;;3.80;99.90;;;;;;5108429;28;20768;-84
2022/01/17 12:35:08;;;;;;;11.83;3.97;;;3.90;99.90;;;;;;5109443;28;20432;-84
2022/01/17 12:37:44;;;;;;;8.00;3.20;;;4.00;99.90;;;;;;5099429;28;20379;-84
2022/01/17 12:40:23;;;;;;;12.67;3.47;;;4.00;99.90;;;;;;5027948;28;20390;-83
2022/01/17 12:43:02;;;;;;;10.90;3.10;;;4.00;99.90;;;;;;5028492;28;20466;-84
2022/01/17 12:45:45;;;;;;;11.23;3.47;;;4.00;99.90;;;;;;5025571;28;20393;-84
2022/01/17 12:48:15;;;;;;;10.18;2.90;;;4.00;99.90;;;;;;5026458;28;20410;-84
2022/01/17 12:50:43;;;;;;;11.38;3.28;;;4.20;99.90;;;;;;5027959;28;20374;-83
2022/01/17 12:53:11;;;;;;;12.83;3.57;;;4.00;99.90;;;;;;5026541;28;20472;-84
2022/01/17 12:55:38;;;;;;;11.40;3.47;;;4.00;99.90;;;;;;5028026;28;20403;-85
2022/01/17 12:58:38;;;;;;;13.48;3.50;;;4.00;99.90;;;;;;5027273;28;20393;-84
2022/01/17 13:01:17;;;;;;;13.38;3.55;;;4.10;99.90;;;;;;5050844;28;20385;-84
2022/01/17 13:03:46;;;;;;;8.05;2.90;;;4.20;99.90;;;;;;5028280;28;20409;-84
2022/01/17 13:06:17;;;;;;;14.45;4.30;;;4.20;99.90;;;;;;5028731;28;20900;-85
2022/01/17 13:08:45;;;;;;;10.43;3.20;;;4.30;99.90;;;;;;5025769;28;20432;-83
2022/01/17 13:11:19;;;;;;;14.55;4.40;;;4.30;99.90;;;;;;5027909;28;20373;-83
2022/01/17 13:13:58;;;;;;;9.90;3.20;;;4.20;99.90;;;;;;5021461;28;20389;-83
2022/01/17 13:16:25;;;;;;;11.27;3.33;;;4.20;99.90;;;;;;5027975;28;20401;-85
2022/01/17 13:18:53;;;;;;;13.65;4.03;;;4.10;99.90;;;;;;5027601;28;20402;-85
2022/01/17 13:21:19;;;;;;;12.85;4.20;;;3.90;99.90;;;;;;5028294;28;20436;-83
2022/01/17 13:24:12;;;;;;;12.63;3.67;;;3.90;99.90;;;;;;5026747;28;20454;-83
2022/01/17 13:26:38;;;;;;;14.57;3.83;;;3.70;99.90;;;;;;5027137;28;20446;-84
2022/01/17 13:29:08;;;;;;;12.15;4.10;;;3.80;99.90;;;;;;5026632;28;20797;-84
2022/01/17 13:31:34;;;;;;;12.57;3.30;;;3.80;99.90;;;;;;5027045;28;20382;-83
2022/01/17 13:34:21;;;;;;;14.07;3.88;;;3.80;99.90;;;;;;5027445;27;20425;-84
2022/01/17 13:36:49;;;;;;;13.50;4.00;;;3.90;99.90;;;;;;5028158;28;20404;-85